sensor_id;sensor_type;location;lat;lon;timestamp;pressure;altitude;pressure_sealevel;temperature;humidity
46710;BME280;32442;51.514;-0.178;2022-07-17T00:00:14;102356.38;;;25.49;40.79
46710;BME280;32442;51.514;-0.178;2022-07-17T00:02:41;102363.72;;;25.50;40.29
46710;BME280;32442;51.514;-0.178;2022-07-17T00:05:08;102360.91;;;25.50;40.50
46710;BME280;32442;51.514;-0.178;2022-07-17T00:07:35;102365.97;;;25.53;40.23
46710;BME280;32442;51.514;-0.178;2022-07-17T00:10:02;102365.50;;;25.46;40.09
46710;BME280;32442;51.514;-0.178;2022-07-17T00:12:29;102368.03;;;25.47;40.08
46710;BME280;32442;51.514;-0.178;2022-07-17T00:14:55;102364.88;;;25.49;40.62
46710;BME280;32442;51.514;-0.178;2022-07-17T00:17:22;102370.53;;;25.49;39.90
46710;BME280;32442;51.514;-0.178;2022-07-17T00:19:49;102366.88;;;25.48;40.02
46710;BME280;32442;51.514;-0.178;2022-07-17T00:22:15;102361.81;;;25.45;40.49
46710;BME280;32442;51.514;-0.178;2022-07-17T00:24:42;102372.53;;;25.48;40.49
46710;BME280;32442;51.514;-0.178;2022-07-17T00:27:09;102368.25;;;25.51;40.40
46710;BME280;32442;51.514;-0.178;2022-07-17T00:29:35;102372.00;;;25.46;40.50
46710;BME280;32442;51.514;-0.178;2022-07-17T00:32:02;102375.44;;;25.43;40.70
46710;BME280;32442;51.514;-0.178;2022-07-17T00:34:29;102378.50;;;25.47;40.14
46710;BME280;32442;51.514;-0.178;2022-07-17T00:36:56;102377.34;;;25.48;40.28
46710;BME280;32442;51.514;-0.178;2022-07-17T00:39:22;102378.81;;;25.45;40.49
46710;BME280;32442;51.514;-0.178;2022-07-17T00:41:49;102386.44;;;25.45;40.24
46710;BME280;32442;51.514;-0.178;2022-07-17T00:44:16;102390.13;;;25.45;40.11
46710;BME280;32442;51.514;-0.178;2022-07-17T00:46:43;102386.69;;;25.48;39.98
46710;BME280;32442;51.514;-0.178;2022-07-17T00:49:10;102384.47;;;25.45;40.45
46710;BME280;32442;51.514;-0.178;2022-07-17T00:51:37;102393.50;;;25.47;40.42
46710;BME280;32442;51.514;-0.178;2022-07-17T00:54:04;102398.59;;;25.45;40.29
46710;BME280;32442;51.514;-0.178;2022-07-17T00:56:34;102387.28;;;25.45;40.36
46710;BME280;32442;51.514;-0.178;2022-07-17T00:59:02;102391.81;;;25.46;40.37
46710;BME280;32442;51.514;-0.178;2022-07-17T01:01:29;102392.72;;;25.42;40.68
46710;BME280;32442;51.514;-0.178;2022-07-17T01:03:57;102381.41;;;25.42;39.97
46710;BME280;32442;51.514;-0.178;2022-07-17T01:06:24;102384.78;;;25.44;39.98
46710;BME280;32442;51.514;-0.178;2022-07-17T01:08:51;102385.31;;;25.46;40.70
46710;BME280;32442;51.514;-0.178;2022-07-17T01:11:18;102383.53;;;25.50;40.59
46710;BME280;32442;51.514;-0.178;2022-07-17T01:13:45;102387.28;;;25.45;40.93
46710;BME280;32442;51.514;-0.178;2022-07-17T01:16:12;102380.19;;;25.48;40.44
46710;BME280;32442;51.514;-0.178;2022-07-17T01:18:39;102374.06;;;25.41;40.52
46710;BME280;32442;51.514;-0.178;2022-07-17T01:21:07;102372.91;;;25.42;40.51
46710;BME280;32442;51.514;-0.178;2022-07-17T01:23:34;102375.13;;;25.45;41.12
46710;BME280;32442;51.514;-0.178;2022-07-17T01:26:02;102375.44;;;25.43;40.18
46710;BME280;32442;51.514;-0.178;2022-07-17T01:28:29;102370.09;;;25.42;40.22
46710;BME280;32442;51.514;-0.178;2022-07-17T01:30:57;102372.38;;;25.40;40.88
46710;BME280;32442;51.514;-0.178;2022-07-17T01:33:24;102370.94;;;25.42;40.59
46710;BME280;32442;51.514;-0.178;2022-07-17T01:35:51;102368.94;;;25.43;40.03
46710;BME280;32442;51.514;-0.178;2022-07-17T01:38:18;102368.63;;;25.44;40.37
46710;BME280;32442;51.514;-0.178;2022-07-17T01:40:44;102367.81;;;25.44;40.87
46710;BME280;32442;51.514;-0.178;2022-07-17T01:43:11;102369.25;;;25.41;40.78
46710;BME280;32442;51.514;-0.178;2022-07-17T01:45:38;102371.22;;;25.41;40.83
46710;BME280;32442;51.514;-0.178;2022-07-17T01:48:05;102370.09;;;25.42;41.01
46710;BME280;32442;51.514;-0.178;2022-07-17T01:50:32;102366.72;;;25.40;41.07
46710;BME280;32442;51.514;-0.178;2022-07-17T01:52:59;102368.19;;;25.37;40.94
46710;BME280;32442;51.514;-0.178;2022-07-17T01:55:26;102373.00;;;25.37;41.29
46710;BME280;32442;51.514;-0.178;2022-07-17T01:57:52;102375.75;;;25.42;41.10
46710;BME280;32442;51.514;-0.178;2022-07-17T02:00:19;102374.91;;;25.41;40.58
46710;BME280;32442;51.514;-0.178;2022-07-17T02:02:49;102372.91;;;25.42;40.89
46710;BME280;32442;51.514;-0.178;2022-07-17T02:05:16;102366.13;;;25.43;40.21
46710;BME280;32442;51.514;-0.178;2022-07-17T02:07:42;102363.81;;;25.45;40.80
46710;BME280;32442;51.514;-0.178;2022-07-17T02:10:11;102362.16;;;25.44;40.75
46710;BME280;32442;51.514;-0.178;2022-07-17T02:12:42;102358.38;;;25.48;40.58
46710;BME280;32442;51.514;-0.178;2022-07-17T02:15:08;102353.66;;;25.44;41.00
46710;BME280;32442;51.514;-0.178;2022-07-17T02:17:35;102355.31;;;25.45;41.32
46710;BME280;32442;51.514;-0.178;2022-07-17T02:20:02;102363.28;;;25.43;40.86
46710;BME280;32442;51.514;-0.178;2022-07-17T02:22:29;102363.38;;;25.38;41.73
46710;BME280;32442;51.514;-0.178;2022-07-17T02:24:56;102365.06;;;25.39;41.24
46710;BME280;32442;51.514;-0.178;2022-07-17T02:27:22;102362.22;;;25.39;41.09
46710;BME280;32442;51.514;-0.178;2022-07-17T02:29:49;102367.81;;;25.44;41.30
46710;BME280;32442;51.514;-0.178;2022-07-17T02:32:16;102359.00;;;25.45;41.14
46710;BME280;32442;51.514;-0.178;2022-07-17T02:34:43;102363.81;;;25.45;41.27
46710;BME280;32442;51.514;-0.178;2022-07-17T02:37:09;102364.97;;;25.44;41.08
46710;BME280;32442;51.514;-0.178;2022-07-17T02:39:36;102367.47;;;25.45;41.26
46710;BME280;32442;51.514;-0.178;2022-07-17T02:42:03;102374.81;;;25.46;40.79
46710;BME280;32442;51.514;-0.178;2022-07-17T02:44:35;102382.78;;;25.44;40.57
46710;BME280;32442;51.514;-0.178;2022-07-17T02:47:03;102386.22;;;25.41;40.74
46710;BME280;32442;51.514;-0.178;2022-07-17T02:49:29;102386.78;;;25.43;40.47
46710;BME280;32442;51.514;-0.178;2022-07-17T02:51:56;102381.19;;;25.38;40.40
46710;BME280;32442;51.514;-0.178;2022-07-17T02:54:29;102382.03;;;25.39;40.95
46710;BME280;32442;51.514;-0.178;2022-07-17T02:56:56;102379.63;;;25.46;40.41
46710;BME280;32442;51.514;-0.178;2022-07-17T02:59:24;102383.09;;;25.43;40.39
46710;BME280;32442;51.514;-0.178;2022-07-17T03:01:51;102367.81;;;25.44;40.26
46710;BME280;32442;51.514;-0.178;2022-07-17T03:04:18;102365.72;;;25.49;39.99
46710;BME280;32442;51.514;-0.178;2022-07-17T03:06:45;102353.41;;;25.40;39.89
46710;BME280;32442;51.514;-0.178;2022-07-17T03:09:20;102351.97;;;25.43;40.54
46710;BME280;32442;51.514;-0.178;2022-07-17T03:11:47;102345.84;;;25.36;40.83
46710;BME280;32442;51.514;-0.178;2022-07-17T03:14:14;102345.47;;;25.42;40.19
46710;BME280;32442;51.514;-0.178;2022-07-17T03:16:42;102350.28;;;25.42;40.02
46710;BME280;32442;51.514;-0.178;2022-07-17T03:19:09;102354.56;;;25.39;40.35
46710;BME280;32442;51.514;-0.178;2022-07-17T03:21:36;102366.50;;;25.36;40.04
46710;BME280;32442;51.514;-0.178;2022-07-17T03:24:03;102368.81;;;25.34;40.44
46710;BME280;32442;51.514;-0.178;2022-07-17T03:26:30;102370.47;;;25.35;40.14
46710;BME280;32442;51.514;-0.178;2022-07-17T03:28:57;102370.56;;;25.30;40.04
46710;BME280;32442;51.514;-0.178;2022-07-17T03:31:24;102368.81;;;25.34;40.27
46710;BME280;32442;51.514;-0.178;2022-07-17T03:33:50;102371.94;;;25.33;40.56
46710;BME280;32442;51.514;-0.178;2022-07-17T03:36:17;102373.00;;;25.37;40.28
46710;BME280;32442;51.514;-0.178;2022-07-17T03:38:44;102367.34;;;25.37;40.15
46710;BME280;32442;51.514;-0.178;2022-07-17T03:41:10;102372.69;;;25.38;40.17
46710;BME280;32442;51.514;-0.178;2022-07-17T03:43:38;102368.47;;;25.36;39.99
46710;BME280;32442;51.514;-0.178;2022-07-17T03:46:05;102377.28;;;25.34;40.34
46710;BME280;32442;51.514;-0.178;2022-07-17T03:48:32;102371.63;;;25.34;40.27
46710;BME280;32442;51.514;-0.178;2022-07-17T03:51:00;102371.09;;;25.32;40.29
46710;BME280;32442;51.514;-0.178;2022-07-17T03:53:27;102367.97;;;25.34;40.44
46710;BME280;32442;51.514;-0.178;2022-07-17T03:55:54;102366.56;;;25.31;40.63
46710;BME280;32442;51.514;-0.178;2022-07-17T03:58:20;102367.97;;;25.34;40.38
46710;BME280;32442;51.514;-0.178;2022-07-17T04:00:47;102373.00;;;25.37;40.43
46710;BME280;32442;51.514;-0.178;2022-07-17T04:03:14;102373.28;;;25.35;40.46
46710;BME280;32442;51.514;-0.178;2022-07-17T04:05:41;102362.31;;;25.34;40.58
46710;BME280;32442;51.514;-0.178;2022-07-17T04:08:07;102369.94;;;25.33;40.71
46710;BME280;32442;51.514;-0.178;2022-07-17T04:10:34;102374.00;;;25.27;40.53
46710;BME280;32442;51.514;-0.178;2022-07-17T04:13:02;102372.56;;;25.30;40.91
46710;BME280;32442;51.514;-0.178;2022-07-17T04:15:28;102374.84;;;25.28;41.10
46710;BME280;32442;51.514;-0.178;2022-07-17T04:18:13;102378.22;;;25.30;40.89
46710;BME280;32442;51.514;-0.178;2022-07-17T04:20:40;102383.88;;;25.30;41.09
46710;BME280;32442;51.514;-0.178;2022-07-17T04:23:07;102368.81;;;25.34;40.96
46710;BME280;32442;51.514;-0.178;2022-07-17T04:25:34;102367.75;;;25.30;41.56
46710;BME280;32442;51.514;-0.178;2022-07-17T04:28:00;102370.56;;;25.30;41.53
46710;BME280;32442;51.514;-0.178;2022-07-17T04:30:27;102372.00;;;25.28;41.90
46710;BME280;32442;51.514;-0.178;2022-07-17T04:32:54;102372.00;;;25.28;41.39
46710;BME280;32442;51.514;-0.178;2022-07-17T04:35:20;102381.03;;;25.30;41.46
46710;BME280;32442;51.514;-0.178;2022-07-17T04:37:47;102381.34;;;25.28;41.49
46710;BME280;32442;51.514;-0.178;2022-07-17T04:40:14;102369.19;;;25.28;41.43
46710;BME280;32442;51.514;-0.178;2022-07-17T04:42:40;102372.00;;;25.28;41.17
46710;BME280;32442;51.514;-0.178;2022-07-17T04:45:07;102375.06;;;25.31;41.40
46710;BME280;32442;51.514;-0.178;2022-07-17T04:47:34;102359.84;;;25.27;41.32
46710;BME280;32442;51.514;-0.178;2022-07-17T04:50:01;102370.56;;;25.30;41.39
46710;BME280;32442;51.514;-0.178;2022-07-17T04:52:28;102373.41;;;25.30;41.12
46710;BME280;32442;51.514;-0.178;2022-07-17T04:54:54;102367.81;;;25.25;41.32
46710;BME280;32442;51.514;-0.178;2022-07-17T04:57:21;102369.72;;;25.30;41.20
46710;BME280;32442;51.514;-0.178;2022-07-17T04:59:48;102363.53;;;25.28;41.34
46710;BME280;32442;51.514;-0.178;2022-07-17T05:02:14;102361.25;;;25.30;41.48
46710;BME280;32442;51.514;-0.178;2022-07-17T05:04:41;102365.00;;;25.25;41.36
46710;BME280;32442;51.514;-0.178;2022-07-17T05:07:08;102360.97;;;25.26;41.40
46710;BME280;32442;51.514;-0.178;2022-07-17T05:09:35;102374.84;;;25.28;41.44
46710;BME280;32442;51.514;-0.178;2022-07-17T05:12:01;102364.13;;;25.24;41.44
46710;BME280;32442;51.514;-0.178;2022-07-17T05:14:35;102376.88;;;25.22;41.59
46710;BME280;32442;51.514;-0.178;2022-07-17T05:17:04;102378.28;;;25.24;41.85
46710;BME280;32442;51.514;-0.178;2022-07-17T05:19:31;102372.56;;;25.30;41.49
46710;BME280;32442;51.514;-0.178;2022-07-17T05:21:59;102373.47;;;25.25;41.65
46710;BME280;32442;51.514;-0.178;2022-07-17T05:24:32;102375.47;;;25.24;41.45
46710;BME280;32442;51.514;-0.178;2022-07-17T05:27:00;102372.63;;;25.24;41.87
46710;BME280;32442;51.514;-0.178;2022-07-17T05:29:26;102373.16;;;25.27;41.68
46710;BME280;32442;51.514;-0.178;2022-07-17T05:31:53;102368.94;;;25.24;41.79
46710;BME280;32442;51.514;-0.178;2022-07-17T05:34:20;102369.25;;;25.22;41.83
46710;BME280;32442;51.514;-0.178;2022-07-17T05:36:47;102372.31;;;25.26;41.67
46710;BME280;32442;51.514;-0.178;2022-07-17T05:39:15;102372.63;;;25.24;42.09
46710;BME280;32442;51.514;-0.178;2022-07-17T05:41:42;102373.47;;;25.25;42.02
46710;BME280;32442;51.514;-0.178;2022-07-17T05:44:09;102374.63;;;25.24;42.21
46710;BME280;32442;51.514;-0.178;2022-07-17T05:46:36;102385.09;;;25.23;42.08
46710;BME280;32442;51.514;-0.178;2022-07-17T05:49:03;102374.13;;;25.17;42.36
46710;BME280;32442;51.514;-0.178;2022-07-17T05:51:29;102380.91;;;25.21;41.89
46710;BME280;32442;51.514;-0.178;2022-07-17T05:53:56;102384.03;;;25.19;42.34
46710;BME280;32442;51.514;-0.178;2022-07-17T05:56:23;102379.50;;;25.18;42.21
46710;BME280;32442;51.514;-0.178;2022-07-17T05:58:50;102381.81;;;25.16;42.17
46710;BME280;32442;51.514;-0.178;2022-07-17T06:01:17;102377.22;;;25.20;42.08
46710;BME280;32442;51.514;-0.178;2022-07-17T06:03:43;102382.09;;;25.15;42.39
46710;BME280;32442;51.514;-0.178;2022-07-17T06:06:10;102393.72;;;25.13;42.37
46710;BME280;32442;51.514;-0.178;2022-07-17T06:08:37;102383.47;;;25.17;42.31
46710;BME280;32442;51.514;-0.178;2022-07-17T06:11:04;102382.81;;;25.26;42.14
46710;BME280;32442;51.514;-0.178;2022-07-17T06:13:30;102380.91;;;25.21;42.64
46710;BME280;32442;51.514;-0.178;2022-07-17T06:15:57;102379.78;;;25.17;42.63
46710;BME280;32442;51.514;-0.178;2022-07-17T06:18:25;102380.91;;;25.21;42.27
46710;BME280;32442;51.514;-0.178;2022-07-17T06:20:52;102382.88;;;25.20;42.36
46710;BME280;32442;51.514;-0.178;2022-07-17T06:23:19;102380.03;;;25.20;42.25
46710;BME280;32442;51.514;-0.178;2022-07-17T06:25:50;102381.25;;;25.14;42.12
46710;BME280;32442;51.514;-0.178;2022-07-17T06:28:17;102382.34;;;25.18;42.39
46710;BME280;32442;51.514;-0.178;2022-07-17T06:30:43;102383.47;;;25.17;42.34
46710;BME280;32442;51.514;-0.178;2022-07-17T06:33:10;102374.97;;;25.17;42.19
46710;BME280;32442;51.514;-0.178;2022-07-17T06:35:42;102379.28;;;25.15;41.91
46710;BME280;32442;51.514;-0.178;2022-07-17T06:38:14;102380.34;;;25.19;42.47
46710;BME280;32442;51.514;-0.178;2022-07-17T06:40:40;102375.22;;;25.21;42.43
46710;BME280;32442;51.514;-0.178;2022-07-17T06:43:07;102378.06;;;25.21;41.88
46710;BME280;32442;51.514;-0.178;2022-07-17T06:45:34;102379.28;;;25.15;42.25
46710;BME280;32442;51.514;-0.178;2022-07-17T06:48:00;102372.22;;;25.12;42.19
46710;BME280;32442;51.514;-0.178;2022-07-17T06:50:27;102377.88;;;25.12;42.38
46710;BME280;32442;51.514;-0.178;2022-07-17T06:52:54;102373.91;;;25.13;42.38
46710;BME280;32442;51.514;-0.178;2022-07-17T06:55:21;102384.31;;;25.18;42.43
46710;BME280;32442;51.514;-0.178;2022-07-17T06:57:47;102378.50;;;25.09;42.72
46710;BME280;32442;51.514;-0.178;2022-07-17T07:00:14;102382.47;;;25.08;42.43
46710;BME280;32442;51.514;-0.178;2022-07-17T07:02:41;102381.88;;;25.11;42.64
46710;BME280;32442;51.514;-0.178;2022-07-17T07:05:08;102384.38;;;25.13;42.64
46710;BME280;32442;51.514;-0.178;2022-07-17T07:07:35;102384.16;;;25.09;43.11
46710;BME280;32442;51.514;-0.178;2022-07-17T07:10:02;102389.03;;;25.04;42.81
46710;BME280;32442;51.514;-0.178;2022-07-17T07:12:28;102388.03;;;24.95;42.41
46710;BME280;32442;51.514;-0.178;2022-07-17T07:14:55;102396.00;;;24.93;42.39
46710;BME280;32442;51.514;-0.178;2022-07-17T07:17:22;102398.88;;;24.88;42.51
46710;BME280;32442;51.514;-0.178;2022-07-17T07:19:49;102398.75;;;24.98;41.84
46710;BME280;32442;51.514;-0.178;2022-07-17T07:22:15;102398.16;;;25.01;42.24
46710;BME280;32442;51.514;-0.178;2022-07-17T07:24:42;102406.16;;;24.94;41.61
46710;BME280;32442;51.514;-0.178;2022-07-17T07:27:09;102400.63;;;24.84;41.88
46710;BME280;32442;51.514;-0.178;2022-07-17T07:29:36;102396.38;;;24.81;41.82
46710;BME280;32442;51.514;-0.178;2022-07-17T07:32:02;102398.63;;;24.84;41.51
46710;BME280;32442;51.514;-0.178;2022-07-17T07:34:33;102406.69;;;24.96;41.38
46710;BME280;32442;51.514;-0.178;2022-07-17T07:37:00;102401.75;;;24.83;41.32
46710;BME280;32442;51.514;-0.178;2022-07-17T07:39:27;102410.53;;;24.81;41.19
46710;BME280;32442;51.514;-0.178;2022-07-17T07:41:53;102401.53;;;24.79;41.33
46710;BME280;32442;51.514;-0.178;2022-07-17T07:44:26;102402.03;;;24.81;41.43
46710;BME280;32442;51.514;-0.178;2022-07-17T07:46:57;102396.44;;;24.76;41.26
46710;BME280;32442;51.514;-0.178;2022-07-17T07:49:24;102405.03;;;24.71;41.17
46710;BME280;32442;51.514;-0.178;2022-07-17T07:51:51;102410.91;;;24.74;41.09
46710;BME280;32442;51.514;-0.178;2022-07-17T07:54:36;102419.38;;;24.74;41.03
46710;BME280;32442;51.514;-0.178;2022-07-17T07:57:04;102415.16;;;24.72;40.94
46710;BME280;32442;51.514;-0.178;2022-07-17T07:59:31;102406.53;;;24.87;40.84
46710;BME280;32442;51.514;-0.178;2022-07-17T08:02:01;102404.63;;;24.77;40.92
46710;BME280;32442;51.514;-0.178;2022-07-17T08:04:28;102401.03;;;24.72;40.82
46710;BME280;32442;51.514;-0.178;2022-07-17T08:06:58;102405.03;;;24.71;41.12
46710;BME280;32442;51.514;-0.178;2022-07-17T08:09:24;102408.75;;;24.66;40.80
46710;BME280;32442;51.514;-0.178;2022-07-17T08:11:51;102403.91;;;24.67;40.70
46710;BME280;32442;51.514;-0.178;2022-07-17T08:14:18;102407.91;;;24.66;40.70
46710;BME280;32442;51.514;-0.178;2022-07-17T08:16:44;102412.94;;;24.69;40.48
46710;BME280;32442;51.514;-0.178;2022-07-17T08:19:12;102407.28;;;24.69;40.64
46710;BME280;32442;51.514;-0.178;2022-07-17T08:21:39;102406.94;;;24.75;40.61
46710;BME280;32442;51.514;-0.178;2022-07-17T08:24:06;102407.28;;;24.69;40.70
46710;BME280;32442;51.514;-0.178;2022-07-17T08:26:32;102404.41;;;24.74;40.33
46710;BME280;32442;51.514;-0.178;2022-07-17T08:28:59;102402.44;;;24.74;40.23
46710;BME280;32442;51.514;-0.178;2022-07-17T08:31:26;102410.91;;;24.74;40.31
46710;BME280;32442;51.514;-0.178;2022-07-17T08:33:53;102412.81;;;24.79;39.76
46710;BME280;32442;51.514;-0.178;2022-07-17T08:36:20;102413.69;;;24.79;39.01
46710;BME280;32442;51.514;-0.178;2022-07-17T08:38:46;102397.84;;;24.78;39.38
46710;BME280;32442;51.514;-0.178;2022-07-17T08:41:16;102403.22;;;24.80;39.09
46710;BME280;32442;51.514;-0.178;2022-07-17T08:43:43;102405.25;;;24.74;39.68
46710;BME280;32442;51.514;-0.178;2022-07-17T08:46:11;102390.28;;;24.74;39.00
46710;BME280;32442;51.514;-0.178;2022-07-17T08:48:39;102387.44;;;24.74;39.26
46710;BME280;32442;51.514;-0.178;2022-07-17T08:51:08;102392.72;;;24.80;39.23
46710;BME280;32442;51.514;-0.178;2022-07-17T08:53:35;102389.38;;;24.78;38.90
46710;BME280;32442;51.514;-0.178;2022-07-17T08:56:01;102382.25;;;24.81;39.37
46710;BME280;32442;51.514;-0.178;2022-07-17T08:58:28;102388.22;;;24.79;39.70
46710;BME280;32442;51.514;-0.178;2022-07-17T09:00:55;102384.78;;;24.83;39.43
46710;BME280;32442;51.514;-0.178;2022-07-17T09:03:21;102394.97;;;24.84;39.75
46710;BME280;32442;51.514;-0.178;2022-07-17T09:05:50;102394.13;;;24.83;39.18
46710;BME280;32442;51.514;-0.178;2022-07-17T09:08:17;102389.09;;;24.99;38.77
46710;BME280;32442;51.514;-0.178;2022-07-17T09:10:46;102385.22;;;24.95;38.34
46710;BME280;32442;51.514;-0.178;2022-07-17T09:13:30;102383.44;;;24.99;37.95
46710;BME280;32442;51.514;-0.178;2022-07-17T09:15:58;102381.53;;;24.94;39.45
46710;BME280;32442;51.514;-0.178;2022-07-17T09:18:25;102384.97;;;24.91;39.63
46710;BME280;32442;51.514;-0.178;2022-07-17T09:20:53;102387.19;;;24.94;38.79
46710;BME280;32442;51.514;-0.178;2022-07-17T09:23:21;102389.38;;;25.02;38.58
46710;BME280;32442;51.514;-0.178;2022-07-17T09:25:49;102383.94;;;25.06;38.90
46710;BME280;32442;51.514;-0.178;2022-07-17T09:28:17;102378.28;;;25.06;37.80
46710;BME280;32442;51.514;-0.178;2022-07-17T09:30:49;102377.50;;;25.00;38.29
46710;BME280;32442;51.514;-0.178;2022-07-17T09:33:16;102376.66;;;25.00;38.48
46710;BME280;32442;51.514;-0.178;2022-07-17T09:35:47;102383.09;;;25.05;39.22
46710;BME280;32442;51.514;-0.178;2022-07-17T09:41:03;102379.97;;;25.07;39.16
46710;BME280;32442;51.514;-0.178;2022-07-17T09:46:23;102371.16;;;25.08;39.33
46710;BME280;32442;51.514;-0.178;2022-07-17T09:48:51;102373.91;;;25.13;39.61
46710;BME280;32442;51.514;-0.178;2022-07-17T09:51:19;102369.25;;;25.22;40.12
46710;BME280;32442;51.514;-0.178;2022-07-17T09:53:46;102376.06;;;25.21;39.41
46710;BME280;32442;51.514;-0.178;2022-07-17T09:56:15;102364.28;;;25.14;39.56
46710;BME280;32442;51.514;-0.178;2022-07-17T09:58:43;102365.13;;;25.15;39.70
46710;BME280;32442;51.514;-0.178;2022-07-17T10:01:13;102361.75;;;25.13;39.05
46710;BME280;32442;51.514;-0.178;2022-07-17T10:03:40;102363.16;;;25.15;39.53
46710;BME280;32442;51.514;-0.178;2022-07-17T10:06:07;102367.66;;;25.16;39.42
46710;BME280;32442;51.514;-0.178;2022-07-17T10:08:34;102370.16;;;25.18;39.44
46710;BME280;32442;51.514;-0.178;2022-07-17T10:11:01;102364.22;;;25.19;39.60
46710;BME280;32442;51.514;-0.178;2022-07-17T10:13:28;102365.28;;;25.23;38.71
46710;BME280;32442;51.514;-0.178;2022-07-17T10:15:55;102356.50;;;25.25;39.06
46710;BME280;32442;51.514;-0.178;2022-07-17T10:18:32;102366.97;;;25.24;39.00
46710;BME280;32442;51.514;-0.178;2022-07-17T10:21:33;102353.88;;;25.29;38.70
46710;BME280;32442;51.514;-0.178;2022-07-17T10:29:08;102344.78;;;25.32;39.05
46710;BME280;32442;51.514;-0.178;2022-07-17T10:31:51;102349.59;;;25.31;38.65
46710;BME280;32442;51.514;-0.178;2022-07-17T10:34:18;102358.63;;;25.33;38.46
46710;BME280;32442;51.514;-0.178;2022-07-17T10:37:08;102355.19;;;25.36;39.07
46710;BME280;32442;51.514;-0.178;2022-07-17T10:39:39;102356.56;;;25.39;38.39
46710;BME280;32442;51.514;-0.178;2022-07-17T10:42:06;102357.94;;;25.41;38.44
46710;BME280;32442;51.514;-0.178;2022-07-17T10:44:38;102338.66;;;25.43;38.74
46710;BME280;32442;51.514;-0.178;2022-07-17T10:47:10;102348.00;;;25.44;38.75
46710;BME280;32442;51.514;-0.178;2022-07-17T10:49:37;102344.31;;;25.43;38.56
46710;BME280;32442;51.514;-0.178;2022-07-17T10:52:04;102350.81;;;25.44;38.59
46710;BME280;32442;51.514;-0.178;2022-07-17T10:54:35;102336.34;;;25.45;38.66
46710;BME280;32442;51.514;-0.178;2022-07-17T10:57:07;102340.88;;;25.46;38.41
46710;BME280;32442;51.514;-0.178;2022-07-17T10:59:34;102341.09;;;25.50;38.54
46710;BME280;32442;51.514;-0.178;2022-07-17T11:02:01;102335.41;;;25.50;38.59
46710;BME280;32442;51.514;-0.178;2022-07-17T11:04:41;102326.94;;;25.50;38.71
46710;BME280;32442;51.514;-0.178;2022-07-17T11:07:12;102332.91;;;25.48;38.79
46710;BME280;32442;51.514;-0.178;2022-07-17T11:09:46;102322.13;;;25.50;38.78
46710;BME280;32442;51.514;-0.178;2022-07-17T11:12:13;102316.44;;;25.50;38.81
46710;BME280;32442;51.514;-0.178;2022-07-17T11:14:40;102307.66;;;25.52;38.88
46710;BME280;32442;51.514;-0.178;2022-07-17T11:17:06;102309.34;;;25.53;38.79
46710;BME280;32442;51.514;-0.178;2022-07-17T11:19:34;102308.75;;;25.56;38.89
46710;BME280;32442;51.514;-0.178;2022-07-17T11:22:11;102312.94;;;25.58;39.12
46710;BME280;32442;51.514;-0.178;2022-07-17T11:24:44;102297.94;;;25.58;38.60
46710;BME280;32442;51.514;-0.178;2022-07-17T11:27:11;102300.16;;;25.61;38.94
46710;BME280;32442;51.514;-0.178;2022-07-17T11:29:40;102306.03;;;25.64;38.89
46710;BME280;32442;51.514;-0.178;2022-07-17T11:32:08;102296.41;;;25.65;38.33
46710;BME280;32442;51.514;-0.178;2022-07-17T11:34:37;102292.72;;;25.65;38.42
46710;BME280;32442;51.514;-0.178;2022-07-17T11:37:06;102294.09;;;25.67;38.38
46710;BME280;32442;51.514;-0.178;2022-07-17T11:39:40;102286.97;;;25.70;38.55
46710;BME280;32442;51.514;-0.178;2022-07-17T11:42:11;102287.50;;;25.72;38.56
46710;BME280;32442;51.514;-0.178;2022-07-17T11:44:42;102291.72;;;25.75;38.83
46710;BME280;32442;51.514;-0.178;2022-07-17T11:47:12;102270.22;;;25.74;38.55
46710;BME280;32442;51.514;-0.178;2022-07-17T11:49:45;102271.88;;;25.75;38.61
46710;BME280;32442;51.514;-0.178;2022-07-17T11:52:16;102261.41;;;25.75;38.32
46710;BME280;32442;51.514;-0.178;2022-07-17T11:54:48;102259.41;;;25.76;38.75
46710;BME280;32442;51.514;-0.178;2022-07-17T11:57:15;102261.06;;;25.77;38.62
46710;BME280;32442;51.514;-0.178;2022-07-17T11:59:44;102259.94;;;25.78;38.68
46710;BME280;32442;51.514;-0.178;2022-07-17T12:02:11;102257.09;;;25.78;38.98
46710;BME280;32442;51.514;-0.178;2022-07-17T12:04:52;102264.16;;;25.80;39.04
46710;BME280;32442;51.514;-0.178;2022-07-17T12:07:19;102250.69;;;25.86;38.67
46710;BME280;32442;51.514;-0.178;2022-07-17T12:09:47;102252.38;;;25.87;38.39
46710;BME280;32442;51.514;-0.178;2022-07-17T12:12:20;102246.63;;;25.92;38.27
46710;BME280;32442;51.514;-0.178;2022-07-17T12:14:51;102244.44;;;25.89;38.48
46710;BME280;32442;51.514;-0.178;2022-07-17T12:17:24;102236.25;;;25.87;38.41
46710;BME280;32442;51.514;-0.178;2022-07-17T12:20:04;102241.28;;;25.90;38.27
46710;BME280;32442;51.514;-0.178;2022-07-17T12:22:45;102220.94;;;25.88;38.34
46710;BME280;32442;51.514;-0.178;2022-07-17T12:25:23;102220.09;;;25.88;38.32
46710;BME280;32442;51.514;-0.178;2022-07-17T12:27:50;102224.06;;;25.87;38.29
46710;BME280;32442;51.514;-0.178;2022-07-17T12:30:17;102228.88;;;25.86;38.17
46710;BME280;32442;51.514;-0.178;2022-07-17T12:32:43;102229.53;;;25.83;38.41
46710;BME280;32442;51.514;-0.178;2022-07-17T12:35:10;102231.41;;;25.88;38.26
46710;BME280;32442;51.514;-0.178;2022-07-17T12:37:37;102229.72;;;25.87;38.66
46710;BME280;32442;51.514;-0.178;2022-07-17T12:40:04;102217.56;;;25.86;38.64
46710;BME280;32442;51.514;-0.178;2022-07-17T12:42:36;102222.38;;;25.86;38.66
46710;BME280;32442;51.514;-0.178;2022-07-17T12:45:04;102225.84;;;25.83;38.86
46710;BME280;32442;51.514;-0.178;2022-07-17T12:47:31;102210.44;;;25.89;38.71
46710;BME280;32442;51.514;-0.178;2022-07-17T12:49:58;102207.91;;;25.87;39.02
46710;BME280;32442;51.514;-0.178;2022-07-17T12:52:25;102206.97;;;25.92;39.12
46710;BME280;32442;51.514;-0.178;2022-07-17T12:54:51;102214.63;;;25.91;39.12